Time;durP1;ratioP1;P1;durP2;ratioP2;P2;SDS_P1;SDS_P2;PMS_P1;PMS_P2;Temp;Humidity;BMP_temperature;BMP_pressure;BME280_temperature;BME280_humidity;BME280_pressure;Samples;Min_cycle;Max_cycle;Signal;HPM_P1;HPM_P2
2022/10/11 00:00:10;;;;;;;11.13;6.53;;;;;;;;;;5032354;28;20228;-72
2022/10/11 00:02:36;;;;;;;7.50;4.00;;;;;;;;;;5032036;28;20189;-71
2022/10/11 00:05:01;;;;;;;8.27;3.70;;;;;;;;;;5032182;28;20683;-71
2022/10/11 00:07:26;;;;;;;7.77;3.97;;;;;;;;;;5032344;28;20174;-71
2022/10/11 00:09:51;;;;;;;9.87;3.60;;;;;;;;;;5029525;28;20186;-72
2022/10/11 00:12:17;;;;;;;5.87;3.33;;;;;;;;;;5013856;28;20208;-71
2022/10/11 00:14:42;;;;;;;4.70;3.47;;;;;;;;;;5032207;28;20641;-71
2022/10/11 00:17:07;;;;;;;6.97;3.37;;;;;;;;;;5031957;28;20189;-71
2022/10/11 00:19:32;;;;;;;4.77;3.27;;;;;;;;;;5032235;28;20257;-71
2022/10/11 00:21:58;;;;;;;9.83;3.33;;;;;;;;;;5031673;28;20178;-71
2022/10/11 00:24:23;;;;;;;5.83;3.97;;;;;;;;;;5013336;28;20214;-71
2022/10/11 00:26:48;;;;;;;6.57;3.60;;;;;;;;;;5031563;28;20268;-72
2022/10/11 00:29:13;;;;;;;7.10;4.13;;;;;;;;;;5031060;28;20531;-71
2022/10/11 00:31:39;;;;;;;5.57;3.60;;;;;;;;;;5031306;28;20202;-71
2022/10/11 00:34:04;;;;;;;7.00;3.87;;;;;;;;;;5031886;28;20186;-72
2022/10/11 00:36:30;;;;;;;6.83;3.77;;;;;;;;;;5031589;28;20648;-71
2022/10/11 00:38:55;;;;;;;11.47;4.27;;;;;;;;;;5030951;28;20205;-72
2022/10/11 00:41:20;;;;;;;8.33;4.10;;;;;;;;;;5031471;28;20269;-72
2022/10/11 00:43:45;;;;;;;8.93;4.43;;;;;;;;;;5031778;28;20202;-72
2022/10/11 00:46:16;;;;;;;10.37;3.83;;;;;;;;;;5031535;28;20198;-71
2022/10/11 00:48:47;;;;;;;8.50;4.33;;;;;;;;;;5031568;28;20253;-72
2022/10/11 00:51:16;;;;;;;9.47;4.57;;;;;;;;;;5031221;28;20197;-72
2022/10/11 00:53:42;;;;;;;6.67;4.10;;;;;;;;;;5029499;28;20213;-72
2022/10/11 00:56:18;;;;;;;8.00;4.47;;;;;;;;;;5031518;28;20186;-70
2022/10/11 00:58:43;;;;;;;8.90;3.77;;;;;;;;;;5031567;28;20177;-71
2022/10/11 01:01:08;;;;;;;7.77;4.73;;;;;;;;;;5031184;28;20171;-71
2022/10/11 01:03:34;;;;;;;14.77;6.20;;;;;;;;;;5031365;28;20281;-71
2022/10/11 01:06:02;;;;;;;10.63;4.10;;;;;;;;;;5030106;28;20663;-73
2022/10/11 01:08:27;;;;;;;8.87;3.83;;;;;;;;;;5011473;28;20252;-71
2022/10/11 01:10:53;;;;;;;8.37;5.07;;;;;;;;;;5031229;28;20254;-71
2022/10/11 01:13:37;;;;;;;10.07;4.93;;;;;;;;;;5013267;28;20284;-71
2022/10/11 01:16:26;;;;;;;9.60;4.40;;;;;;;;;;5013772;28;20185;-71
2022/10/11 01:19:29;;;;;;;8.37;4.10;;;;;;;;;;4993612;28;20193;-71
2022/10/11 01:22:13;;;;;;;6.63;5.00;;;;;;;;;;4950558;28;20312;-72
2022/10/11 01:24:38;;;;;;;5.93;3.67;;;;;;;;;;4961633;28;20561;-72
2022/10/11 01:27:19;;;;;;;7.90;4.73;;;;;;;;;;5005694;28;20271;-71
2022/10/11 01:29:50;;;;;;;7.07;3.80;;;;;;;;;;5031266;28;20227;-71
2022/10/11 01:32:23;;;;;;;8.20;4.33;;;;;;;;;;5030818;28;20162;-71
2022/10/11 01:34:48;;;;;;;10.73;4.33;;;;;;;;;;5030674;28;20236;-72
2022/10/11 01:37:17;;;;;;;10.73;3.77;;;;;;;;;;5031013;28;20256;-72
2022/10/11 01:39:46;;;;;;;5.07;3.40;;;;;;;;;;5031112;28;20186;-72
2022/10/11 01:42:12;;;;;;;7.43;3.60;;;;;;;;;;5030700;28;20182;-71
2022/10/11 01:44:38;;;;;;;5.87;3.47;;;;;;;;;;5031084;28;20194;-71
2022/10/11 01:47:03;;;;;;;7.57;3.80;;;;;;;;;;5030273;28;20208;-71
2022/10/11 01:49:28;;;;;;;5.67;3.47;;;;;;;;;;5028537;28;20183;-71
2022/10/11 01:51:54;;;;;;;6.90;3.47;;;;;;;;;;5012624;28;20220;-73
2022/10/11 01:54:19;;;;;;;8.77;3.70;;;;;;;;;;5013349;28;20225;-71
2022/10/11 01:56:59;;;;;;;8.27;3.63;;;;;;;;;;5030819;28;20171;-71
2022/10/11 01:59:49;;;;;;;5.97;3.40;;;;;;;;;;5010035;28;20264;-71
2022/10/11 02:02:14;;;;;;;5.17;3.57;;;;;;;;;;5026465;28;20409;-71
2022/10/11 02:04:48;;;;;;;7.07;3.10;;;;;;;;;;5013579;28;20178;-71
2022/10/11 02:07:22;;;;;;;6.83;3.20;;;;;;;;;;5012963;28;20205;-71
2022/10/11 02:09:51;;;;;;;8.87;3.57;;;;;;;;;;5030948;28;20190;-71
2022/10/11 02:12:19;;;;;;;8.10;3.47;;;;;;;;;;5029390;28;20182;-71
2022/10/11 02:14:46;;;;;;;6.43;3.60;;;;;;;;;;5023001;28;20197;-71
2022/10/11 02:17:16;;;;;;;9.60;5.03;;;;;;;;;;5030761;28;20179;-71
2022/10/11 02:19:44;;;;;;;9.53;6.00;;;;;;;;;;5016442;28;20676;-70
2022/10/11 02:22:13;;;;;;;8.83;5.63;;;;;;;;;;5033924;28;20182;-71
2022/10/11 02:24:40;;;;;;;8.93;5.07;;;;;;;;;;5034279;28;20269;-73
2022/10/11 02:27:06;;;;;;;7.60;5.13;;;;;;;;;;5016236;28;20206;-73
2022/10/11 02:29:33;;;;;;;8.97;5.83;;;;;;;;;;5033032;28;20185;-71
2022/10/11 02:31:59;;;;;;;14.23;7.20;;;;;;;;;;5033900;28;20652;-71
2022/10/11 02:34:32;;;;;;;14.10;7.13;;;;;;;;;;5034098;28;20203;-71
2022/10/11 02:37:03;;;;;;;14.57;6.33;;;;;;;;;;5034071;28;20674;-73
2022/10/11 02:39:44;;;;;;;12.67;5.53;;;;;;;;;;5034162;28;20633;-71
2022/10/11 02:42:12;;;;;;;14.23;6.57;;;;;;;;;;5015982;28;20180;-72
2022/10/11 02:44:41;;;;;;;15.53;7.23;;;;;;;;;;5032248;28;20187;-71
2022/10/11 02:47:07;;;;;;;11.40;5.50;;;;;;;;;;5032341;28;20703;-72
2022/10/11 02:49:33;;;;;;;11.97;5.30;;;;;;;;;;5032407;28;20175;-71
2022/10/11 02:51:58;;;;;;;11.17;4.73;;;;;;;;;;5033568;28;20177;-72
2022/10/11 02:54:24;;;;;;;9.40;4.53;;;;;;;;;;5033278;28;20193;-71
2022/10/11 02:56:49;;;;;;;8.80;5.00;;;;;;;;;;5033735;28;20170;-71
2022/10/11 02:59:14;;;;;;;9.13;5.20;;;;;;;;;;5030881;28;20178;-72
2022/10/11 03:01:40;;;;;;;11.00;4.73;;;;;;;;;;5026482;28;20178;-72
2022/10/11 03:04:05;;;;;;;8.00;4.23;;;;;;;;;;5033399;28;20198;-71
2022/10/11 03:06:30;;;;;;;9.67;4.60;;;;;;;;;;5015847;28;20632;-71
2022/10/11 03:08:55;;;;;;;8.07;4.00;;;;;;;;;;5015440;28;20178;-71
2022/10/11 03:11:20;;;;;;;5.90;3.90;;;;;;;;;;5032326;28;20170;-71
2022/10/11 03:13:46;;;;;;;6.70;3.70;;;;;;;;;;5032407;28;20244;-72
2022/10/11 03:16:11;;;;;;;6.77;3.97;;;;;;;;;;5032430;28;20174;-71
2022/10/11 03:18:36;;;;;;;8.07;4.57;;;;;;;;;;5033091;28;20615;-71
2022/10/11 03:21:02;;;;;;;7.07;3.90;;;;;;;;;;5032902;28;20192;-72
2022/10/11 03:23:27;;;;;;;7.53;4.00;;;;;;;;;;5033061;28;20712;-73
2022/10/11 03:25:52;;;;;;;8.10;3.70;;;;;;;;;;5032016;28;20260;-73
2022/10/11 03:28:19;;;;;;;10.83;4.30;;;;;;;;;;5032921;28;20294;-73
2022/10/11 03:30:46;;;;;;;8.63;4.13;;;;;;;;;;5015030;28;20210;-73
2022/10/11 03:33:11;;;;;;;8.00;4.53;;;;;;;;;;5015213;28;20201;-73
2022/10/11 03:35:36;;;;;;;8.33;4.40;;;;;;;;;;5015142;28;20178;-73
2022/10/11 03:38:01;;;;;;;9.17;5.03;;;;;;;;;;5032903;28;20181;-73
2022/10/11 03:40:27;;;;;;;8.87;4.60;;;;;;;;;;5030357;28;20725;-73
2022/10/11 03:42:55;;;;;;;6.53;3.83;;;;;;;;;;5014628;28;20614;-73
2022/10/11 03:45:20;;;;;;;10.47;5.23;;;;;;;;;;5032596;28;20240;-73
2022/10/11 03:47:45;;;;;;;8.23;4.63;;;;;;;;;;5032658;28;20171;-73
2022/10/11 03:50:10;;;;;;;6.07;3.97;;;;;;;;;;5032530;28;20183;-73
2022/10/11 03:52:36;;;;;;;9.33;4.83;;;;;;;;;;5032238;28;20190;-73
2022/10/11 03:55:01;;;;;;;10.83;4.60;;;;;;;;;;5032096;28;20176;-73
2022/10/11 03:57:26;;;;;;;9.03;4.80;;;;;;;;;;5031277;28;20704;-73
2022/10/11 03:59:51;;;;;;;9.23;5.43;;;;;;;;;;5031010;28;20595;-73
2022/10/11 04:02:17;;;;;;;7.80;5.20;;;;;;;;;;5013700;28;20190;-73
2022/10/11 04:04:42;;;;;;;8.83;5.57;;;;;;;;;;5032332;28;20179;-73
2022/10/11 04:07:07;;;;;;;9.33;5.47;;;;;;;;;;5030839;28;20683;-73
2022/10/11 04:09:33;;;;;;;10.47;6.20;;;;;;;;;;5031896;28;20212;-73
2022/10/11 04:11:58;;;;;;;10.40;5.27;;;;;;;;;;5030899;28;20185;-73
2022/10/11 04:14:24;;;;;;;8.37;5.10;;;;;;;;;;5031898;28;20237;-73
2022/10/11 04:16:49;;;;;;;10.57;5.53;;;;;;;;;;5032042;28;20167;-73
2022/10/11 04:19:14;;;;;;;14.30;6.10;;;;;;;;;;5031910;28;20174;-73
2022/10/11 04:21:39;;;;;;;10.30;6.10;;;;;;;;;;5031138;28;20174;-73
2022/10/11 04:24:05;;;;;;;8.10;5.80;;;;;;;;;;5030731;28;20268;-73
2022/10/11 04:26:30;;;;;;;11.13;5.97;;;;;;;;;;5014021;28;20198;-73
2022/10/11 04:28:55;;;;;;;12.03;5.77;;;;;;;;;;5011700;28;20174;-73
2022/10/11 04:31:20;;;;;;;7.37;4.93;;;;;;;;;;5013739;28;20220;-73
2022/10/11 04:33:46;;;;;;;10.13;5.30;;;;;;;;;;5031819;28;20190;-73
2022/10/11 04:36:11;;;;;;;9.53;5.93;;;;;;;;;;5031099;28;20182;-73
2022/10/11 04:38:36;;;;;;;13.57;5.73;;;;;;;;;;5031526;28;20185;-73
2022/10/11 04:41:07;;;;;;;11.83;6.40;;;;;;;;;;5030998;28;20171;-73
2022/10/11 04:43:33;;;;;;;9.57;6.37;;;;;;;;;;5031737;28;20726;-73
2022/10/11 04:45:58;;;;;;;14.10;6.37;;;;;;;;;;5030605;28;20205;-73
2022/10/11 04:48:23;;;;;;;13.30;7.47;;;;;;;;;;5030070;28;20532;-73
2022/10/11 04:50:48;;;;;;;12.03;5.83;;;;;;;;;;5028936;28;20236;-73
2022/10/11 04:53:14;;;;;;;10.27;5.60;;;;;;;;;;5031437;28;20224;-73
2022/10/11 04:55:39;;;;;;;11.13;5.80;;;;;;;;;;5024243;28;20174;-73
2022/10/11 04:58:04;;;;;;;8.13;5.10;;;;;;;;;;5029929;28;20175;-73
2022/10/11 05:00:29;;;;;;;11.27;6.40;;;;;;;;;;5013392;28;20171;-73
2022/10/11 05:02:54;;;;;;;11.63;5.90;;;;;;;;;;5030731;28;20190;-73
2022/10/11 05:05:20;;;;;;;12.30;5.63;;;;;;;;;;5031345;28;20240;-73
2022/10/11 05:07:45;;;;;;;8.40;5.13;;;;;;;;;;5030349;28;20265;-73
2022/10/11 05:10:10;;;;;;;10.50;5.73;;;;;;;;;;5013707;28;20170;-73
2022/10/11 05:12:35;;;;;;;10.27;5.80;;;;;;;;;;5031097;28;20194;-73
2022/10/11 05:15:00;;;;;;;7.23;5.43;;;;;;;;;;5031230;28;20205;-73
2022/10/11 05:17:26;;;;;;;13.07;7.23;;;;;;;;;;5013786;28;20174;-73
2022/10/11 05:19:51;;;;;;;11.10;6.43;;;;;;;;;;5031683;28;20660;-73
2022/10/11 05:22:16;;;;;;;9.53;6.47;;;;;;;;;;5029981;28;20726;-73
2022/10/11 05:24:42;;;;;;;8.63;5.47;;;;;;;;;;5013296;28;20197;-74
2022/10/11 05:27:07;;;;;;;11.63;5.87;;;;;;;;;;5031161;28;20201;-73
2022/10/11 05:29:32;;;;;;;14.63;6.20;;;;;;;;;;5031322;28;20644;-73
2022/10/11 05:31:58;;;;;;;7.47;6.03;;;;;;;;;;5025804;28;20191;-73
2022/10/11 05:34:23;;;;;;;9.57;5.77;;;;;;;;;;5030962;28;20201;-74
2022/10/11 05:36:48;;;;;;;8.60;6.20;;;;;;;;;;5029656;28;20653;-73
2022/10/11 05:39:13;;;;;;;9.73;6.13;;;;;;;;;;5031127;28;20175;-73
2022/10/11 05:41:38;;;;;;;7.37;6.00;;;;;;;;;;5030819;28;20181;-73
2022/10/11 05:44:06;;;;;;;7.70;5.70;;;;;;;;;;5031083;28;20226;-73
2022/10/11 05:46:31;;;;;;;10.67;5.90;;;;;;;;;;5028239;28;20194;-73
2022/10/11 05:48:56;;;;;;;10.47;5.53;;;;;;;;;;5030996;28;20254;-73
2022/10/11 05:51:21;;;;;;;11.33;6.00;;;;;;;;;;5030429;28;20173;-73
2022/10/11 05:53:46;;;;;;;11.77;5.40;;;;;;;;;;5033937;28;20211;-73
2022/10/11 05:56:19;;;;;;;12.63;5.20;;;;;;;;;;5034893;28;20240;-73
2022/10/11 05:58:44;;;;;;;9.83;4.93;;;;;;;;;;5015581;28;20567;-73
2022/10/11 06:01:16;;;;;;;9.67;5.63;;;;;;;;;;5032845;28;20187;-73
2022/10/11 06:03:42;;;;;;;13.10;5.93;;;;;;;;;;5034129;28;20198;-73
2022/10/11 06:06:07;;;;;;;9.87;5.50;;;;;;;;;;5034589;28;20621;-73
2022/10/11 06:08:32;;;;;;;8.80;5.80;;;;;;;;;;5034550;28;20179;-73
2022/10/11 06:10:57;;;;;;;10.50;5.87;;;;;;;;;;5016495;28;20170;-73
2022/10/11 06:13:22;;;;;;;10.57;6.30;;;;;;;;;;5034333;28;20194;-73
2022/10/11 06:15:48;;;;;;;14.07;7.37;;;;;;;;;;5033124;28;20232;-73
2022/10/11 06:18:14;;;;;;;16.10;6.20;;;;;;;;;;5033524;28;20588;-73
2022/10/11 06:20:39;;;;;;;10.60;5.67;;;;;;;;;;5034010;28;20597;-73
2022/10/11 06:23:04;;;;;;;8.47;5.30;;;;;;;;;;5034169;28;20225;-73
2022/10/11 06:25:29;;;;;;;18.73;7.57;;;;;;;;;;5033300;28;20225;-73
2022/10/11 06:27:54;;;;;;;11.80;6.93;;;;;;;;;;5034272;28;20194;-73
2022/10/11 06:30:20;;;;;;;13.53;6.93;;;;;;;;;;5034228;28;20167;-73
2022/10/11 06:32:45;;;;;;;12.37;6.13;;;;;;;;;;5033966;28;20190;-73
2022/10/11 06:35:10;;;;;;;12.60;5.60;;;;;;;;;;5034060;28;20195;-73
2022/10/11 06:37:35;;;;;;;10.97;5.73;;;;;;;;;;5034251;28;20207;-73
2022/10/11 06:40:01;;;;;;;15.03;5.50;;;;;;;;;;5032850;28;20178;-73
2022/10/11 06:42:26;;;;;;;11.77;5.17;;;;;;;;;;5033727;28;20170;-73
2022/10/11 06:44:51;;;;;;;12.07;5.20;;;;;;;;;;5033888;28;20245;-73
2022/10/11 06:47:16;;;;;;;11.73;4.83;;;;;;;;;;5033721;28;20217;-73
2022/10/11 06:49:41;;;;;;;9.70;5.13;;;;;;;;;;5031980;28;20550;-73
2022/10/11 06:52:07;;;;;;;11.80;5.87;;;;;;;;;;5032674;28;20189;-73
2022/10/11 06:54:33;;;;;;;9.50;4.60;;;;;;;;;;5032768;28;20269;-74
2022/10/11 06:56:58;;;;;;;7.43;4.07;;;;;;;;;;5033544;28;20170;-73
2022/10/11 06:59:23;;;;;;;10.23;4.83;;;;;;;;;;5029753;28;20296;-73
2022/10/11 07:01:48;;;;;;;10.07;4.47;;;;;;;;;;5033146;28;20605;-73
2022/10/11 07:04:13;;;;;;;9.33;4.50;;;;;;;;;;5033131;28;20244;-73
2022/10/11 07:06:39;;;;;;;6.40;4.30;;;;;;;;;;5033333;28;20240;-73
2022/10/11 07:09:05;;;;;;;8.50;5.03;;;;;;;;;;5015149;28;20179;-73
2022/10/11 07:11:31;;;;;;;9.63;4.53;;;;;;;;;;5032765;28;20177;-75
2022/10/11 07:13:58;;;;;;;9.27;4.20;;;;;;;;;;5033464;28;20190;-75
2022/10/11 07:16:23;;;;;;;8.03;4.27;;;;;;;;;;5032745;28;20720;-73
2022/10/11 07:18:51;;;;;;;4.90;4.20;;;;;;;;;;5033492;28;20348;-73
2022/10/11 07:21:16;;;;;;;7.20;3.93;;;;;;;;;;5031871;28;20182;-73
2022/10/11 07:23:41;;;;;;;4.13;3.30;;;;;;;;;;5033150;28;20221;-72
2022/10/11 07:26:07;;;;;;;10.30;4.10;;;;;;;;;;5015365;28;20648;-73
2022/10/11 07:28:33;;;;;;;11.10;5.53;;;;;;;;;;5033260;28;20569;-73
2022/10/11 07:31:02;;;;;;;11.60;5.53;;;;;;;;;;5032919;28;20178;-75
2022/10/11 07:33:27;;;;;;;12.03;5.30;;;;;;;;;;5029997;28;20218;-73
2022/10/11 07:35:55;;;;;;;8.20;4.33;;;;;;;;;;5033075;28;20178;-72
2022/10/11 07:38:20;;;;;;;8.20;3.87;;;;;;;;;;5033187;28;20582;-72
2022/10/11 07:40:45;;;;;;;11.70;4.10;;;;;;;;;;5032812;28;20166;-74
2022/10/11 07:43:11;;;;;;;10.83;4.50;;;;;;;;;;5032807;28;20240;-73
2022/10/11 07:45:37;;;;;;;6.67;3.47;;;;;;;;;;5032702;28;20240;-72
2022/10/11 07:48:02;;;;;;;11.77;4.00;;;;;;;;;;5031385;28;20171;-73
2022/10/11 07:50:27;;;;;;;8.00;4.03;;;;;;;;;;5014775;28;20559;-72
2022/10/11 07:52:53;;;;;;;9.00;4.67;;;;;;;;;;5032229;28;20194;-72
2022/10/11 07:55:18;;;;;;;8.00;4.50;;;;;;;;;;5032740;28;20170;-72
2022/10/11 07:57:43;;;;;;;12.97;4.20;;;;;;;;;;5012905;28;20182;-73
2022/10/11 08:00:08;;;;;;;7.23;3.70;;;;;;;;;;5032490;28;20166;-73
2022/10/11 08:02:34;;;;;;;7.07;3.43;;;;;;;;;;5031911;28;20664;-72
2022/10/11 08:04:59;;;;;;;10.20;3.50;;;;;;;;;;5032451;28;20217;-72
2022/10/11 08:07:24;;;;;;;8.57;4.57;;;;;;;;;;5032238;28;20190;-72
2022/10/11 08:09:49;;;;;;;7.90;3.40;;;;;;;;;;5027856;28;20183;-72
2022/10/11 08:12:14;;;;;;;7.80;3.87;;;;;;;;;;5031016;28;20181;-72
2022/10/11 08:14:40;;;;;;;5.13;3.50;;;;;;;;;;5031839;28;20174;-72
2022/10/11 08:17:05;;;;;;;8.27;3.37;;;;;;;;;;5013477;28;20647;-72
2022/10/11 08:19:31;;;;;;;7.43;3.13;;;;;;;;;;5030672;28;20648;-72
2022/10/11 08:21:56;;;;;;;5.65;2.90;;;;;;;;;;5031998;28;20174;-72
2022/10/11 08:24:21;;;;;;;6.47;3.20;;;;;;;;;;5031123;28;20301;-72
2022/10/11 08:26:46;;;;;;;10.85;3.30;;;;;;;;;;5032196;28;20202;-72
2022/10/11 08:29:13;;;;;;;6.57;3.08;;;;;;;;;;5032158;28;20167;-72
2022/10/11 08:31:38;;;;;;;8.93;3.42;;;;;;;;;;5029214;28;20178;-72
2022/10/11 08:34:03;;;;;;;7.57;3.28;;;;;;;;;;5031517;28;20201;-72
2022/10/11 08:36:28;;;;;;;10.15;3.03;;;;;;;;;;5032058;28;20170;-72
2022/10/11 08:38:53;;;;;;;5.85;2.65;;;;;;;;;;5032185;28;20213;-72
2022/10/11 08:41:23;;;;;;;5.88;2.45;;;;;;;;;;5030545;28;20186;-72
2022/10/11 08:43:48;;;;;;;7.85;2.58;;;;;;;;;;5031856;28;20277;-72
2022/10/11 08:46:14;;;;;;;8.20;2.77;;;;;;;;;;5031454;28;20269;-72
2022/10/11 08:48:47;;;;;;;6.70;2.47;;;;;;;;;;5031655;28;20406;-72
2022/10/11 08:51:24;;;;;;;6.18;2.50;;;;;;;;;;5031139;28;20166;-72
2022/10/11 08:53:58;;;;;;;7.90;4.00;;;;;;;;;;5013997;28;20334;-72
2022/10/11 08:56:25;;;;;;;4.93;2.17;;;;;;;;;;5025372;28;20276;-72
2022/10/11 08:58:50;;;;;;;5.43;2.28;;;;;;;;;;5029096;28;20644;-74
2022/10/11 09:01:18;;;;;;;7.87;3.00;;;;;;;;;;5030912;28;20312;-72
2022/10/11 09:03:44;;;;;;;5.93;2.13;;;;;;;;;;5031475;28;20426;-73
2022/10/11 09:06:22;;;;;;;7.55;1.90;;;;;;;;;;5031435;28;20190;-72
2022/10/11 09:09:12;;;;;;;9.05;2.42;;;;;;;;;;5030553;28;20257;-73
2022/10/11 09:11:37;;;;;;;4.70;1.77;;;;;;;;;;5030098;28;20311;-71
2022/10/11 09:14:14;;;;;;;7.60;2.03;;;;;;;;;;5031621;28;20190;-71
2022/10/11 09:16:58;;;;;;;11.65;4.72;;;;;;;;;;5028215;28;20558;-71
2022/10/11 09:19:26;;;;;;;7.07;3.38;;;;;;;;;;5031292;28;20269;-74
2022/10/11 09:21:51;;;;;;;19.25;3.65;;;;;;;;;;5030962;28;20205;-74
2022/10/11 09:24:35;;;;;;;6.03;2.00;;;;;;;;;;5011962;28;20233;-71
2022/10/11 09:27:07;;;;;;;7.13;2.38;;;;;;;;;;5026691;28;20198;-71
2022/10/11 09:29:38;;;;;;;4.40;2.50;;;;;;;;;;5035360;28;20175;-71
2022/10/11 09:32:11;;;;;;;10.45;2.28;;;;;;;;;;5035257;28;20189;-71
2022/10/11 09:34:36;;;;;;;6.72;1.80;;;;;;;;;;5016471;28;20198;-71
2022/10/11 09:37:14;;;;;;;10.80;3.20;;;;;;;;;;5034404;28;20205;-71
2022/10/11 09:39:44;;;;;;;5.88;2.00;;;;;;;;;;5035345;28;20240;-71
2022/10/11 09:42:10;;;;;;;7.25;1.77;;;;;;;;;;5034874;28;20179;-71
2022/10/11 09:44:44;;;;;;;6.03;1.60;;;;;;;;;;5035305;28;20223;-71
2022/10/11 09:47:13;;;;;;;7.75;2.17;;;;;;;;;;5017134;28;20207;-71
2022/10/11 09:49:45;;;;;;;9.00;2.13;;;;;;;;;;5032372;28;20178;-71
2022/10/11 09:52:14;;;;;;;11.05;1.92;;;;;;;;;;5011857;28;20192;-71
2022/10/11 09:54:40;;;;;;;8.18;2.17;;;;;;;;;;5027857;28;20170;-71
2022/10/11 09:57:16;;;;;;;8.40;2.20;;;;;;;;;;5030106;28;20200;-71
2022/10/11 09:59:42;;;;;;;7.85;1.85;;;;;;;;;;5031596;28;20180;-71
2022/10/11 10:02:16;;;;;;;5.03;1.92;;;;;;;;;;5032835;28;20685;-71
2022/10/11 10:04:53;;;;;;;7.97;3.05;;;;;;;;;;5033781;28;20206;-71
2022/10/11 10:07:18;;;;;;;5.45;1.98;;;;;;;;;;5034375;28;20228;-71
2022/10/11 10:09:43;;;;;;;8.40;1.98;;;;;;;;;;5034817;28;20656;-71
2022/10/11 10:12:13;;;;;;;5.90;1.77;;;;;;;;;;5034302;28;20177;-71
2022/10/11 10:14:39;;;;;;;5.78;1.75;;;;;;;;;;5032820;28;20195;-71
2022/10/11 10:17:07;;;;;;;7.80;2.13;;;;;;;;;;5033063;28;20274;-71
2022/10/11 10:19:38;;;;;;;7.22;1.80;;;;;;;;;;5034229;28;20542;-72
2022/10/11 10:22:03;;;;;;;6.90;1.60;;;;;;;;;;5034544;28;20178;-72
2022/10/11 10:24:31;;;;;;;6.20;1.88;;;;;;;;;;5034301;28;20305;-72
2022/10/11 10:27:26;;;;;;;4.57;1.58;;;;;;;;;;5034766;28;20194;-72
2022/10/11 10:30:12;;;;;;;6.63;2.08;;;;;;;;;;4998939;28;20526;-72
2022/10/11 10:32:51;;;;;;;5.97;1.63;;;;;;;;;;5016184;28;20194;-72
2022/10/11 10:35:28;;;;;;;8.15;2.17;;;;;;;;;;5034182;28;20632;-72
2022/10/11 10:38:09;;;;;;;6.32;1.90;;;;;;;;;;5033600;28;20217;-72
2022/10/11 10:40:34;;;;;;;6.95;1.65;;;;;;;;;;5033105;28;20170;-72
2022/10/11 10:42:59;;;;;;;5.63;1.07;;;;;;;;;;5030713;28;20198;-72
2022/10/11 10:45:28;;;;;;;5.75;1.67;;;;;;;;;;5033605;28;20495;-72
2022/10/11 10:48:06;;;;;;;7.97;2.28;;;;;;;;;;5034254;28;20514;-72
2022/10/11 10:50:34;;;;;;;7.18;1.50;;;;;;;;;;5033796;28;20545;-72
2022/10/11 10:52:59;;;;;;;7.68;2.60;;;;;;;;;;5033413;28;20186;-72
2022/10/11 10:55:39;;;;;;;7.10;1.70;;;;;;;;;;5032169;28;20220;-72
2022/10/11 10:58:12;;;;;;;4.05;1.33;;;;;;;;;;5024304;28;20420;-72
2022/10/11 11:00:51;;;;;;;9.30;2.15;;;;;;;;;;5032952;28;20232;-72
2022/10/11 11:03:19;;;;;;;5.65;1.80;;;;;;;;;;5033385;28;20268;-72
2022/10/11 11:05:54;;;;;;;6.25;1.63;;;;;;;;;;5033916;28;20549;-72
2022/10/11 11:08:37;;;;;;;4.55;1.10;;;;;;;;;;5033447;28;20220;-72
2022/10/11 11:11:18;;;;;;;5.20;1.95;;;;;;;;;;5026972;28;20179;-72
2022/10/11 11:14:01;;;;;;;8.75;3.20;;;;;;;;;;5026282;28;20252;-72
2022/10/11 11:16:29;;;;;;;4.45;0.95;;;;;;;;;;5032804;28;20214;-72
2022/10/11 11:19:02;;;;;;;4.80;1.15;;;;;;;;;;5033335;28;20170;-72
2022/10/11 11:21:46;;;;;;;3.72;1.02;;;;;;;;;;5033058;28;20170;-72
2022/10/11 11:24:24;;;;;;;4.45;0.98;;;;;;;;;;5033300;28;20209;-72
2022/10/11 11:27:03;;;;;;;4.88;1.20;;;;;;;;;;5030904;28;20205;-72
2022/10/11 11:29:37;;;;;;;5.78;1.33;;;;;;;;;;5031127;28;20185;-72
2022/10/11 11:32:28;;;;;;;3.75;1.00;;;;;;;;;;5032934;28;20215;-72
2022/10/11 11:35:09;;;;;;;5.40;1.08;;;;;;;;;;5029045;28;20567;-72
2022/10/11 11:37:36;;;;;;;4.53;1.30;;;;;;;;;;5033103;28;20663;-72
2022/10/11 11:40:04;;;;;;;4.82;1.48;;;;;;;;;;5032056;28;20194;-72
2022/10/11 11:42:40;;;;;;;3.35;1.10;;;;;;;;;;5032797;28;20179;-72
2022/10/11 11:45:32;;;;;;;2.97;0.98;;;;;;;;;;5032652;28;20169;-72
2022/10/11 11:48:02;;;;;;;5.35;1.88;;;;;;;;;;5009999;28;20201;-72
2022/10/11 11:50:32;;;;;;;6.05;1.08;;;;;;;;;;5012893;28;20167;-72
2022/10/11 11:52:59;;;;;;;3.78;1.20;;;;;;;;;;5029316;28;20201;-72
2022/10/11 11:55:24;;;;;;;7.80;1.40;;;;;;;;;;5026579;28;20174;-72
2022/10/11 11:57:55;;;;;;;5.60;1.40;;;;;;;;;;5030440;28;20185;-72
2022/10/11 12:00:23;;;;;;;6.47;2.05;;;;;;;;;;5032262;28;20274;-72
2022/10/11 12:02:51;;;;;;;5.05;1.50;;;;;;;;;;5032300;28;20244;-72
2022/10/11 12:05:18;;;;;;;3.58;0.98;;;;;;;;;;5032066;28;20181;-72
2022/10/11 12:07:46;;;;;;;4.05;1.30;;;;;;;;;;5013834;28;20665;-72
2022/10/11 12:10:23;;;;;;;4.95;0.98;;;;;;;;;;5032187;28;20174;-72
2022/10/11 12:13:00;;;;;;;3.45;1.30;;;;;;;;;;5014315;28;20202;-72
2022/10/11 12:15:25;;;;;;;6.85;1.38;;;;;;;;;;5014642;28;20592;-72
2022/10/11 12:17:54;;;;;;;5.65;1.30;;;;;;;;;;5031846;28;20178;-72
2022/10/11 12:20:24;;;;;;;1.88;0.82;;;;;;;;;;5030549;28;20194;-70
2022/10/11 12:22:49;;;;;;;5.75;1.38;;;;;;;;;;5031834;28;20617;-71
2022/10/11 12:25:14;;;;;;;7.07;1.67;;;;;;;;;;5031917;28;20193;-71
2022/10/11 12:27:47;;;;;;;7.97;1.50;;;;;;;;;;5032037;28;20212;-71
2022/10/11 12:30:30;;;;;;;4.70;1.58;;;;;;;;;;5031958;28;20651;-71
2022/10/11 12:33:04;;;;;;;7.00;1.63;;;;;;;;;;5030578;28;20618;-71
2022/10/11 12:35:29;;;;;;;5.57;1.75;;;;;;;;;;5031942;28;20244;-71
2022/10/11 12:38:02;;;;;;;5.05;1.38;;;;;;;;;;5014122;28;20175;-71
2022/10/11 12:40:35;;;;;;;5.35;1.67;;;;;;;;;;5031779;28;20171;-71
2022/10/11 12:43:15;;;;;;;6.28;1.48;;;;;;;;;;5031743;28;20617;-71
2022/10/11 12:45:46;;;;;;;3.75;1.10;;;;;;;;;;5031055;28;20229;-71
2022/10/11 12:48:29;;;;;;;3.90;1.25;;;;;;;;;;5031887;28;20167;-71
2022/10/11 12:51:14;;;;;;;7.47;3.20;;;;;;;;;;5031127;28;20172;-71
2022/10/11 12:53:39;;;;;;;5.95;1.30;;;;;;;;;;5013969;28;20190;-71
2022/10/11 12:56:09;;;;;;;6.60;1.10;;;;;;;;;;5031758;28;20177;-71
2022/10/11 12:58:40;;;;;;;6.28;1.73;;;;;;;;;;5012737;28;20644;-71
2022/10/11 13:01:11;;;;;;;4.70;1.45;;;;;;;;;;5012958;28;20652;-71
2022/10/11 13:03:36;;;;;;;4.65;2.35;;;;;;;;;;5013815;28;20676;-71
2022/10/11 13:06:10;;;;;;;4.68;1.73;;;;;;;;;;5031010;28;20209;-71
2022/10/11 13:08:36;;;;;;;7.75;1.63;;;;;;;;;;5031613;28;20224;-72
2022/10/11 13:11:03;;;;;;;6.43;1.85;;;;;;;;;;5013571;28;20178;-71
2022/10/11 13:13:33;;;;;;;3.33;1.17;;;;;;;;;;5030496;28;20697;-71
2022/10/11 13:16:02;;;;;;;7.22;1.83;;;;;;;;;;5031390;28;20174;-71
2022/10/11 13:18:27;;;;;;;7.82;1.65;;;;;;;;;;5013712;28;20213;-71
2022/10/11 13:20:53;;;;;;;6.30;1.83;;;;;;;;;;5031288;28;20205;-71
2022/10/11 13:23:23;;;;;;;6.63;2.10;;;;;;;;;;5031328;28;20272;-71
2022/10/11 13:25:48;;;;;;;4.65;1.13;;;;;;;;;;5030983;28;20220;-71
2022/10/11 13:28:14;;;;;;;5.82;1.45;;;;;;;;;;5030539;28;20253;-71
2022/10/11 13:30:42;;;;;;;5.55;1.23;;;;;;;;;;5013472;28;20258;-71
2022/10/11 13:33:13;;;;;;;3.67;1.35;;;;;;;;;;5031415;28;20195;-71
2022/10/11 13:35:38;;;;;;;10.07;2.53;;;;;;;;;;5031538;28;20264;-71
2022/10/11 13:38:06;;;;;;;6.13;1.73;;;;;;;;;;5031279;28;20652;-72
2022/10/11 13:40:32;;;;;;;4.57;2.15;;;;;;;;;;5030143;28;20182;-71
2022/10/11 13:42:59;;;;;;;5.43;1.38;;;;;;;;;;5030861;28;20676;-71
2022/10/11 13:45:25;;;;;;;7.07;1.35;;;;;;;;;;5030936;28;20575;-71
2022/10/11 13:47:51;;;;;;;4.45;1.40;;;;;;;;;;5030533;28;20175;-71
2022/10/11 13:50:30;;;;;;;6.88;2.03;;;;;;;;;;5030962;28;20305;-71
2022/10/11 13:52:58;;;;;;;4.13;1.75;;;;;;;;;;5031081;28;20287;-71
2022/10/11 13:55:28;;;;;;;3.75;1.20;;;;;;;;;;5030938;28;20670;-71
2022/10/11 13:57:55;;;;;;;5.47;1.58;;;;;;;;;;5011837;28;20179;-71
2022/10/11 14:00:22;;;;;;;5.72;1.27;;;;;;;;;;5030942;28;20167;-71
2022/10/11 14:02:57;;;;;;;4.25;1.30;;;;;;;;;;5030682;28;20194;-71
2022/10/11 14:05:25;;;;;;;4.07;1.20;;;;;;;;;;5031046;28;20170;-71
2022/10/11 14:07:50;;;;;;;2.80;1.17;;;;;;;;;;5029026;28;20638;-71
2022/10/11 14:10:20;;;;;;;6.47;2.33;;;;;;;;;;5030733;28;20261;-71
2022/10/11 14:12:55;;;;;;;5.70;1.25;;;;;;;;;;5005850;28;20189;-71
2022/10/11 14:15:22;;;;;;;4.60;1.20;;;;;;;;;;5034463;28;20166;-72
2022/10/11 14:17:47;;;;;;;4.95;1.15;;;;;;;;;;5034739;28;20228;-71
2022/10/11 14:20:13;;;;;;;8.15;1.58;;;;;;;;;;5033065;28;20182;-71
2022/10/11 14:22:38;;;;;;;4.25;1.23;;;;;;;;;;5030157;28;20195;-71
2022/10/11 14:25:03;;;;;;;4.78;1.83;;;;;;;;;;5033995;28;20214;-71
2022/10/11 14:27:29;;;;;;;6.68;1.50;;;;;;;;;;5034332;28;20289;-71
2022/10/11 14:29:54;;;;;;;5.15;1.30;;;;;;;;;;5034096;28;20291;-71
2022/10/11 14:32:23;;;;;;;4.00;1.27;;;;;;;;;;5032691;28;20266;-71
2022/10/11 14:34:48;;;;;;;4.97;1.58;;;;;;;;;;5034067;28;20177;-70
2022/10/11 14:37:14;;;;;;;6.32;1.55;;;;;;;;;;5034256;28;20200;-71
2022/10/11 14:39:40;;;;;;;4.63;1.42;;;;;;;;;;5016351;28;20174;-73
2022/10/11 14:42:05;;;;;;;6.10;1.65;;;;;;;;;;5032919;28;20182;-71
2022/10/11 14:44:31;;;;;;;3.42;1.60;;;;;;;;;;5033894;28;20712;-70
2022/10/11 14:46:56;;;;;;;7.28;1.73;;;;;;;;;;5032965;28;20559;-71